createdAt,value
2022-10-19T00:00:12.789Z,0.00
2022-10-19T00:01:12.753Z,0.00
2022-10-19T00:02:12.740Z,0.00
2022-10-19T00:03:12.629Z,0.00
2022-10-19T00:04:12.583Z,0.00
2022-10-19T00:05:12.526Z,0.00
2022-10-19T00:06:12.476Z,0.00
2022-10-19T00:07:12.440Z,0.00
2022-10-19T00:08:12.377Z,0.00
2022-10-19T00:09:12.318Z,0.00
2022-10-19T00:10:12.265Z,0.00
2022-10-19T00:11:12.214Z,0.00
2022-10-19T00:12:12.187Z,0.00
2022-10-19T00:13:12.112Z,0.00
2022-10-19T00:14:12.060Z,0.00
2022-10-19T00:15:12.010Z,0.00
2022-10-19T00:16:11.963Z,0.00
2022-10-19T00:17:11.906Z,0.00
2022-10-19T00:18:11.876Z,0.00
2022-10-19T00:19:11.803Z,0.00
2022-10-19T00:20:11.752Z,0.00
2022-10-19T00:21:11.696Z,0.00
2022-10-19T00:22:13.882Z,0.00
2022-10-19T00:23:11.598Z,0.00
2022-10-19T00:24:11.561Z,0.00
2022-10-19T00:25:11.490Z,0.00
2022-10-19T00:26:11.438Z,0.00
2022-10-19T00:27:11.384Z,0.00
2022-10-19T00:28:11.335Z,0.00
2022-10-19T00:29:11.398Z,0.00
2022-10-19T00:30:11.229Z,0.00
2022-10-19T00:31:11.180Z,0.00
2022-10-19T00:32:11.128Z,0.00
2022-10-19T00:33:11.077Z,0.00
2022-10-19T00:34:11.022Z,0.00
2022-10-19T00:35:11.000Z,0.00
2022-10-19T00:36:10.919Z,0.00
2022-10-19T00:37:10.869Z,0.00
2022-10-19T00:38:10.814Z,0.00
2022-10-19T00:39:10.760Z,0.00
2022-10-19T00:40:10.715Z,0.00
2022-10-19T00:41:10.678Z,0.00
2022-10-19T00:42:10.606Z,0.00
2022-10-19T00:43:10.554Z,0.00
2022-10-19T00:44:10.501Z,0.00
2022-10-19T00:45:10.450Z,0.00
2022-10-19T00:46:10.434Z,0.00
2022-10-19T00:47:10.347Z,0.00
2022-10-19T00:48:10.292Z,0.00
2022-10-19T00:49:10.991Z,0.00
2022-10-19T00:50:10.192Z,0.00
2022-10-19T00:51:10.138Z,0.00
2022-10-19T00:52:10.111Z,0.00
2022-10-19T00:53:10.032Z,0.00
2022-10-19T00:54:09.979Z,0.00
2022-10-19T00:55:09.927Z,0.00
2022-10-19T00:56:09.878Z,0.00
2022-10-19T00:57:09.830Z,0.00
2022-10-19T00:58:09.797Z,0.00
2022-10-19T00:59:09.719Z,0.00
2022-10-19T01:00:09.667Z,0.00
2022-10-19T01:01:09.648Z,0.00
2022-10-19T01:02:09.563Z,0.00
2022-10-19T01:03:09.527Z,0.00
2022-10-19T01:04:09.457Z,0.00
2022-10-19T01:05:09.405Z,0.00
2022-10-19T01:06:09.356Z,0.00
2022-10-19T01:07:09.313Z,0.00
2022-10-19T01:08:09.253Z,0.00
2022-10-19T01:09:09.199Z,0.00
2022-10-19T01:10:09.142Z,0.00
2022-10-19T01:11:09.096Z,0.00
2022-10-19T01:12:09.053Z,0.00
2022-10-19T01:13:08.987Z,0.00
2022-10-19T01:14:08.947Z,0.00
2022-10-19T01:15:08.880Z,0.00
2022-10-19T01:16:08.827Z,0.00
2022-10-19T01:17:08.777Z,0.00
2022-10-19T01:18:08.723Z,0.00
2022-10-19T01:19:08.689Z,0.00
2022-10-19T01:20:08.630Z,0.00
2022-10-19T01:21:08.566Z,0.00
2022-10-19T01:22:08.529Z,0.00
2022-10-19T01:23:08.462Z,0.00
2022-10-19T01:24:08.414Z,0.00
2022-10-19T01:25:08.372Z,0.00
2022-10-19T01:26:08.301Z,0.00
2022-10-19T01:27:08.279Z,0.00
2022-10-19T01:28:08.214Z,0.00
2022-10-19T01:29:08.186Z,0.00
2022-10-19T01:30:08.092Z,0.00
2022-10-19T01:31:08.056Z,0.00
2022-10-19T01:32:07.991Z,0.00
2022-10-19T01:33:07.933Z,0.00
2022-10-19T01:34:07.881Z,0.00
2022-10-19T01:35:07.848Z,0.00
2022-10-19T01:36:07.791Z,0.00
2022-10-19T01:37:07.727Z,0.00
2022-10-19T01:38:07.679Z,0.00
2022-10-19T01:39:07.633Z,0.00
2022-10-19T01:40:07.569Z,0.00
2022-10-19T01:41:07.527Z,0.00
2022-10-19T01:42:07.462Z,0.00
2022-10-19T01:43:07.410Z,0.00
2022-10-19T01:44:07.354Z,0.00
2022-10-19T01:45:07.304Z,0.00
2022-10-19T01:46:07.249Z,0.00
2022-10-19T01:47:07.213Z,0.00
2022-10-19T01:48:07.150Z,0.00
2022-10-19T01:49:07.091Z,0.00
2022-10-19T01:50:07.039Z,0.00
2022-10-19T01:51:06.983Z,0.00
2022-10-19T01:52:06.950Z,0.00
2022-10-19T01:53:06.893Z,0.00
2022-10-19T01:54:06.826Z,0.00
2022-10-19T01:55:06.773Z,0.00
2022-10-19T01:56:06.733Z,0.00
2022-10-19T01:57:06.706Z,0.00
2022-10-19T01:58:08.412Z,0.00
2022-10-19T01:59:06.562Z,0.00
2022-10-19T02:00:06.510Z,0.00
2022-10-19T02:01:06.587Z,0.00
2022-10-19T02:02:06.418Z,0.00
2022-10-19T02:03:06.351Z,0.00
2022-10-19T02:04:06.299Z,0.00
2022-10-19T02:05:06.246Z,0.00
2022-10-19T02:06:06.216Z,0.00
2022-10-19T02:07:06.155Z,0.00
2022-10-19T02:08:06.104Z,0.00
2022-10-19T02:09:06.036Z,0.00
2022-10-19T02:10:06.059Z,0.00
2022-10-19T02:11:05.929Z,0.00
2022-10-19T02:12:05.889Z,0.00
2022-10-19T02:13:05.825Z,0.00
2022-10-19T02:14:05.768Z,0.00
2022-10-19T02:15:05.721Z,0.00
2022-10-19T02:16:05.667Z,0.00
2022-10-19T02:17:05.624Z,0.00
2022-10-19T02:18:05.560Z,0.00
2022-10-19T02:19:05.505Z,0.00
2022-10-19T02:20:05.467Z,0.00
2022-10-19T02:21:05.413Z,0.00
2022-10-19T02:22:05.345Z,0.00
2022-10-19T02:23:05.297Z,0.00
2022-10-19T02:24:05.247Z,0.00
2022-10-19T02:25:05.191Z,0.00
2022-10-19T02:26:05.154Z,0.00
2022-10-19T02:27:05.090Z,0.00
2022-10-19T02:28:05.028Z,0.00
2022-10-19T02:29:04.995Z,0.00
2022-10-19T02:30:04.927Z,0.00
2022-10-19T02:31:04.870Z,0.00
2022-10-19T02:32:04.817Z,0.00
2022-10-19T02:33:04.767Z,0.00
2022-10-19T02:34:04.726Z,0.00
2022-10-19T02:35:04.675Z,0.00
2022-10-19T02:36:04.607Z,0.00
2022-10-19T02:37:04.552Z,0.00
2022-10-19T02:38:04.503Z,0.00
2022-10-19T02:39:04.444Z,0.00
2022-10-19T02:40:04.412Z,0.00
2022-10-19T02:41:04.353Z,0.00
2022-10-19T02:42:04.292Z,0.00
2022-10-19T02:43:04.235Z,0.00
2022-10-19T02:44:04.183Z,0.00
2022-10-19T02:45:04.129Z,0.00
2022-10-19T02:46:04.097Z,0.00
2022-10-19T02:47:04.025Z,0.00
2022-10-19T02:48:03.972Z,0.00
2022-10-19T02:49:03.913Z,0.00
2022-10-19T02:50:03.862Z,0.00
2022-10-19T02:51:03.835Z,0.00
2022-10-19T02:52:03.761Z,0.00
2022-10-19T02:53:03.703Z,0.00
2022-10-19T02:54:05.236Z,0.00
2022-10-19T02:55:03.593Z,0.00
2022-10-19T02:56:03.564Z,0.00
2022-10-19T02:57:03.487Z,0.00
2022-10-19T02:58:03.434Z,0.00
2022-10-19T02:59:03.375Z,0.00
2022-10-19T03:00:03.327Z,0.00
2022-10-19T03:01:03.348Z,0.00
2022-10-19T03:02:03.234Z,0.00
2022-10-19T03:03:03.164Z,0.00
2022-10-19T03:04:03.117Z,0.00
2022-10-19T03:05:03.059Z,0.00
2022-10-19T03:06:03.006Z,0.00
2022-10-19T03:07:02.965Z,0.00
2022-10-19T03:08:02.900Z,0.00
2022-10-19T03:09:02.846Z,0.00
2022-10-19T03:10:02.792Z,0.00
2022-10-19T03:11:02.737Z,0.00
2022-10-19T03:12:02.704Z,0.00
2022-10-19T03:13:02.646Z,0.00
2022-10-19T03:14:02.586Z,0.00
2022-10-19T03:15:02.526Z,0.00
2022-10-19T03:16:02.469Z,0.00
2022-10-19T03:17:02.429Z,0.00
2022-10-19T03:18:02.368Z,0.00
2022-10-19T03:19:02.308Z,0.00
2022-10-19T03:20:02.252Z,0.00
2022-10-19T03:21:02.199Z,0.00
2022-10-19T03:22:02.256Z,0.00
2022-10-19T03:23:02.095Z,0.00
2022-10-19T03:24:02.043Z,0.00
2022-10-19T03:25:01.985Z,0.00
2022-10-19T03:26:01.933Z,0.00
2022-10-19T03:27:01.876Z,0.00
2022-10-19T03:28:01.837Z,0.00
2022-10-19T03:29:01.876Z,0.00
2022-10-19T03:30:01.714Z,0.00
2022-10-19T03:31:01.661Z,0.00
2022-10-19T03:32:01.625Z,0.00
2022-10-19T03:33:01.558Z,0.00
2022-10-19T03:34:01.514Z,0.00
2022-10-19T03:35:01.444Z,0.00
2022-10-19T03:36:01.395Z,0.00
2022-10-19T03:37:01.338Z,0.00
2022-10-19T03:38:01.292Z,0.00
2022-10-19T03:39:01.249Z,0.00
2022-10-19T03:40:01.180Z,0.00
2022-10-19T03:41:01.125Z,0.00
2022-10-19T03:42:01.069Z,0.00
2022-10-19T03:43:01.030Z,0.00
2022-10-19T03:45:00.911Z,0.00
2022-10-19T03:46:00.869Z,0.00
2022-10-19T03:47:00.827Z,0.00
2022-10-19T03:48:00.748Z,0.00
2022-10-19T03:49:00.709Z,0.00
2022-10-19T03:50:00.640Z,0.00
2022-10-19T03:51:00.587Z,0.00
2022-10-19T03:52:00.547Z,0.00
2022-10-19T03:53:00.515Z,0.00
2022-10-19T03:54:00.423Z,0.00
2022-10-19T03:55:00.373Z,0.00
2022-10-19T03:56:00.314Z,0.00
2022-10-19T03:57:00.281Z,0.00
2022-10-19T03:58:00.209Z,0.00
2022-10-19T03:59:00.158Z,0.00
2022-10-19T04:00:00.109Z,0.00
2022-10-19T04:01:00.082Z,0.00
2022-10-19T04:02:00.009Z,0.00
2022-10-19T04:02:59.938Z,0.00
2022-10-19T04:03:59.885Z,0.00
2022-10-19T04:04:59.835Z,0.00
2022-10-19T04:05:59.809Z,0.00
2022-10-19T04:06:59.741Z,0.00
2022-10-19T04:07:59.671Z,0.00
2022-10-19T04:08:59.618Z,0.00
2022-10-19T04:09:59.568Z,0.00
2022-10-19T04:10:59.510Z,0.00
2022-10-19T04:11:59.471Z,0.00
2022-10-19T04:12:59.422Z,0.00
2022-10-19T04:13:59.398Z,0.00
2022-10-19T04:14:59.294Z,0.00
2022-10-19T04:15:59.240Z,0.00
2022-10-19T04:16:59.200Z,0.00
2022-10-19T04:17:59.132Z,0.00
2022-10-19T04:18:59.078Z,0.00
2022-10-19T04:19:59.022Z,0.00
2022-10-19T04:20:58.971Z,0.00
2022-10-19T04:21:58.934Z,0.00
2022-10-19T04:22:58.864Z,0.00
2022-10-19T04:23:58.824Z,0.00
2022-10-19T04:24:58.760Z,0.00
2022-10-19T04:25:58.718Z,0.00
2022-10-19T04:26:58.645Z,0.00
2022-10-19T04:27:58.595Z,0.00
2022-10-19T04:28:58.763Z,0.00
2022-10-19T04:29:58.490Z,0.00
2022-10-19T04:30:58.447Z,0.00
2022-10-19T04:31:58.408Z,0.00
2022-10-19T04:32:58.323Z,0.00
2022-10-19T04:33:58.280Z,0.00
2022-10-19T04:34:58.219Z,0.00
2022-10-19T04:35:58.181Z,0.00
2022-10-19T04:36:58.108Z,0.00
2022-10-19T04:37:58.058Z,0.00
2022-10-19T04:38:58.019Z,0.00
2022-10-19T04:39:57.948Z,0.00
2022-10-19T04:40:57.894Z,0.00
2022-10-19T04:41:57.857Z,0.00
2022-10-19T04:42:57.789Z,0.00
2022-10-19T04:43:57.738Z,0.00
2022-10-19T04:44:57.695Z,0.00
2022-10-19T04:45:57.629Z,0.00
2022-10-19T04:46:57.585Z,0.00
2022-10-19T04:47:57.519Z,0.00
2022-10-19T04:48:57.475Z,0.00
2022-10-19T04:49:57.410Z,0.00
2022-10-19T04:50:57.355Z,0.00
2022-10-19T04:51:57.317Z,0.00
2022-10-19T04:52:57.267Z,0.00
2022-10-19T04:53:59.477Z,0.00
2022-10-19T04:54:57.142Z,0.00
2022-10-19T04:55:57.087Z,0.00
2022-10-19T04:56:57.035Z,0.00
2022-10-19T04:57:56.981Z,0.00
2022-10-19T04:58:56.940Z,0.00
2022-10-19T04:59:56.874Z,0.00
2022-10-19T05:00:56.835Z,0.00
2022-10-19T05:01:56.777Z,0.00
2022-10-19T05:04:12.972Z,0.00
2022-10-19T05:05:12.915Z,0.00
2022-10-19T05:06:12.861Z,0.00
2022-10-19T05:07:12.844Z,0.00
2022-10-19T05:08:12.756Z,0.00
2022-10-19T05:09:12.700Z,0.00
2022-10-19T05:10:12.647Z,0.00
2022-10-19T05:11:12.606Z,0.00
2022-10-19T05:12:12.540Z,0.00
2022-10-19T05:13:12.486Z,0.00
2022-10-19T05:14:12.431Z,0.00
2022-10-19T05:15:12.378Z,0.00
2022-10-19T05:16:12.347Z,0.00
2022-10-19T05:17:12.270Z,0.00
2022-10-19T05:18:12.214Z,0.00
2022-10-19T05:19:12.163Z,0.00
2022-10-19T05:20:12.110Z,0.00
2022-10-19T05:21:12.068Z,0.00
2022-10-19T05:22:12.004Z,0.00
2022-10-19T05:23:11.950Z,0.00
2022-10-19T05:24:11.894Z,0.00
2022-10-19T05:25:11.841Z,0.00
2022-10-19T05:26:11.849Z,4.00
2022-10-19T05:27:11.733Z,0.00
2022-10-19T05:28:11.678Z,0.00
2022-10-19T05:29:11.667Z,4.00
2022-10-19T05:30:11.586Z,0.00
2022-10-19T05:31:11.573Z,0.00
2022-10-19T05:32:11.466Z,0.00
2022-10-19T05:33:11.425Z,0.00
2022-10-19T05:34:11.360Z,0.00
2022-10-19T05:35:11.319Z,8.00
2022-10-19T05:36:11.250Z,8.00
2022-10-19T05:37:11.198Z,4.00
2022-10-19T05:38:11.146Z,8.00
2022-10-19T05:39:11.089Z,8.00
2022-10-19T05:40:11.050Z,12.00
2022-10-19T05:41:10.982Z,12.00
2022-10-19T05:42:10.930Z,12.00
2022-10-19T05:43:10.874Z,16.00
2022-10-19T05:44:10.822Z,16.00
2022-10-19T05:45:10.792Z,16.00
2022-10-19T05:46:10.714Z,20.00
2022-10-19T05:47:10.658Z,24.00
2022-10-19T05:48:10.610Z,24.00
2022-10-19T05:49:10.553Z,28.00
2022-10-19T05:50:10.512Z,28.00
2022-10-19T05:51:10.442Z,32.00
2022-10-19T05:52:10.434Z,32.00
2022-10-19T05:53:10.342Z,36.00
2022-10-19T05:54:10.283Z,36.00
2022-10-19T05:55:10.244Z,44.00
2022-10-19T05:56:10.175Z,44.00
2022-10-19T05:57:10.137Z,44.00
2022-10-19T05:58:10.067Z,48.00
2022-10-19T05:59:10.021Z,52.00
2022-10-19T06:00:09.961Z,56.00
2022-10-19T06:01:09.908Z,60.00
2022-10-19T06:02:09.921Z,60.00
2022-10-19T06:03:09.799Z,68.00
2022-10-19T06:04:09.821Z,68.00
2022-10-19T06:05:09.697Z,76.00
2022-10-19T06:06:09.642Z,80.00
2022-10-19T06:07:09.589Z,88.00
2022-10-19T06:08:09.548Z,92.00
2022-10-19T06:09:09.481Z,100.00
2022-10-19T06:10:09.438Z,108.00
2022-10-19T06:11:09.372Z,108.00
2022-10-19T06:12:09.315Z,116.00
2022-10-19T06:13:09.275Z,116.00
2022-10-19T06:14:09.211Z,124.00
2022-10-19T06:15:09.156Z,128.00
2022-10-19T06:16:09.104Z,132.00
2022-10-19T06:17:09.062Z,132.00
2022-10-19T06:18:08.994Z,140.00
2022-10-19T06:19:08.940Z,144.00
2022-10-19T06:20:08.885Z,148.00
2022-10-19T06:21:08.850Z,156.00
2022-10-19T06:22:08.780Z,156.00
2022-10-19T06:23:08.727Z,148.00
2022-10-19T06:24:08.673Z,152.00
2022-10-19T06:25:08.632Z,148.00
2022-10-19T06:26:08.581Z,148.00
2022-10-19T06:27:08.554Z,152.00
2022-10-19T06:28:08.460Z,164.00
2022-10-19T06:29:08.405Z,176.00
2022-10-19T06:30:08.365Z,180.00
2022-10-19T06:31:09.347Z,184.00
2022-10-19T06:32:08.243Z,180.00
2022-10-19T06:33:08.190Z,184.00
2022-10-19T06:34:08.175Z,188.00
2022-10-19T06:35:08.081Z,180.00
2022-10-19T06:36:08.045Z,180.00
2022-10-19T06:37:08.009Z,196.00
2022-10-19T06:38:07.918Z,216.00
2022-10-19T06:39:07.872Z,236.00
2022-10-19T06:40:07.870Z,256.00
2022-10-19T06:41:07.758Z,276.00
2022-10-19T06:42:07.719Z,276.00
2022-10-19T06:43:07.649Z,288.00
2022-10-19T06:44:07.597Z,264.00
2022-10-19T06:45:07.557Z,276.00
2022-10-19T06:46:07.492Z,292.00
2022-10-19T06:47:07.449Z,328.00
2022-10-19T06:48:07.834Z,384.00
2022-10-19T06:49:07.345Z,368.00
2022-10-19T06:50:07.275Z,392.00
2022-10-19T06:51:07.218Z,404.00
2022-10-19T06:52:07.169Z,360.00
2022-10-19T06:53:07.111Z,352.00
2022-10-19T06:54:07.077Z,396.00
2022-10-19T06:55:07.007Z,428.00
2022-10-19T06:56:06.957Z,424.00
2022-10-19T06:57:06.912Z,396.00
2022-10-19T06:58:06.843Z,396.00
2022-10-19T06:59:06.806Z,476.00
2022-10-19T07:00:06.738Z,476.00
2022-10-19T07:01:06.725Z,552.00
2022-10-19T07:02:06.627Z,556.00
2022-10-19T07:03:06.572Z,600.00
2022-10-19T07:04:06.535Z,600.00
2022-10-19T07:05:07.243Z,656.00
2022-10-19T07:06:06.426Z,724.00
2022-10-19T07:07:06.375Z,668.00
2022-10-19T07:08:06.408Z,672.00
2022-10-19T07:09:06.278Z,780.00
2022-10-19T07:10:06.197Z,804.00
2022-10-19T07:11:06.144Z,768.00
2022-10-19T07:12:06.093Z,764.00
2022-10-19T07:13:06.034Z,636.00
2022-10-19T07:14:05.981Z,572.00
2022-10-19T07:15:05.943Z,552.00
2022-10-19T07:16:05.875Z,600.00
2022-10-19T07:17:05.823Z,644.00
2022-10-19T07:18:05.775Z,724.00
2022-10-19T07:19:05.709Z,756.00
2022-10-19T07:20:05.672Z,564.00
2022-10-19T07:21:05.605Z,584.00
2022-10-19T07:22:05.558Z,552.00
2022-10-19T07:23:05.503Z,532.00
2022-10-19T07:24:05.457Z,652.00
2022-10-19T07:25:05.388Z,648.00
2022-10-19T07:26:05.336Z,580.00
2022-10-19T07:27:05.283Z,572.00
2022-10-19T07:28:05.229Z,600.00
2022-10-19T07:29:05.188Z,680.00
2022-10-19T07:30:05.134Z,704.00
2022-10-19T07:31:05.075Z,736.00
2022-10-19T07:32:05.028Z,676.00
2022-10-19T07:33:04.990Z,652.00
2022-10-19T07:34:04.908Z,616.00
2022-10-19T07:35:04.852Z,508.00
2022-10-19T07:36:04.811Z,480.00
2022-10-19T07:37:04.780Z,516.00
2022-10-19T07:38:04.690Z,548.00
2022-10-19T07:39:04.650Z,592.00
2022-10-19T07:40:04.583Z,668.00
2022-10-19T07:41:04.532Z,784.00
2022-10-19T07:42:04.476Z,788.00
2022-10-19T07:43:04.436Z,804.00
2022-10-19T07:44:04.366Z,856.00
2022-10-19T07:45:04.313Z,888.00
2022-10-19T07:46:04.272Z,912.00
2022-10-19T07:47:04.347Z,932.00
2022-10-19T07:48:04.153Z,940.00
2022-10-19T07:49:04.114Z,952.00
2022-10-19T07:50:04.043Z,856.00
2022-10-19T07:51:03.989Z,1016.00
2022-10-19T07:52:03.937Z,1040.00
2022-10-19T07:53:03.886Z,1056.00
2022-10-19T07:54:03.829Z,1092.00
2022-10-19T07:55:03.792Z,1068.00
2022-10-19T07:56:03.723Z,1068.00
2022-10-19T07:57:03.674Z,1092.00
2022-10-19T07:58:03.615Z,1100.00
2022-10-19T07:59:03.562Z,1136.00
2022-10-19T08:00:03.537Z,1052.00
2022-10-19T08:01:03.453Z,1188.00
2022-10-19T08:02:03.441Z,1180.00
2022-10-19T08:05:07.334Z,1148.00
2022-10-19T08:06:03.184Z,1096.00
2022-10-19T08:07:03.163Z,1152.00
2022-10-19T08:08:03.076Z,1128.00
2022-10-19T08:09:03.081Z,1076.00
2022-10-19T08:10:02.973Z,1056.00
2022-10-19T08:11:02.930Z,1036.00
2022-10-19T08:12:02.892Z,1068.00
2022-10-19T08:13:02.812Z,1084.00
2022-10-19T08:14:02.756Z,1060.00
2022-10-19T08:15:02.715Z,1104.00
2022-10-19T08:16:02.654Z,1172.00
2022-10-19T08:17:02.611Z,1172.00
2022-10-19T08:18:02.544Z,1172.00
2022-10-19T08:19:02.487Z,1124.00
2022-10-19T08:20:03.200Z,1044.00
2022-10-19T08:21:03.199Z,1000.00
2022-10-19T08:22:02.350Z,1012.00
2022-10-19T08:23:02.274Z,1020.00
2022-10-19T08:24:02.222Z,1004.00
2022-10-19T08:25:02.169Z,1004.00
2022-10-19T08:26:02.115Z,1040.00
2022-10-19T08:27:02.091Z,1052.00
2022-10-19T08:28:02.013Z,1088.00
2022-10-19T08:29:01.954Z,1144.00
2022-10-19T08:30:01.933Z,1184.00
2022-10-19T08:31:01.846Z,1256.00
2022-10-19T08:32:01.793Z,1344.00
2022-10-19T08:33:01.769Z,1424.00
2022-10-19T08:34:01.687Z,1440.00
2022-10-19T08:35:01.647Z,1464.00
2022-10-19T08:36:01.579Z,1472.00
2022-10-19T08:37:06.697Z,1388.00
2022-10-19T08:38:02.876Z,1436.00
2022-10-19T08:39:01.419Z,1468.00
2022-10-19T08:40:01.366Z,1376.00
2022-10-19T08:41:01.315Z,1348.00
2022-10-19T08:42:01.298Z,1420.00
2022-10-19T08:43:01.232Z,1484.00
2022-10-19T08:44:03.139Z,1496.00
2022-10-19T08:45:01.099Z,1476.00
2022-10-19T08:46:01.045Z,1520.00
2022-10-19T08:47:02.594Z,1536.00
2022-10-19T08:48:00.956Z,1476.00
2022-10-19T08:49:00.887Z,1444.00
2022-10-19T08:50:00.835Z,1412.00
2022-10-19T08:51:00.781Z,1408.00
2022-10-19T08:52:00.743Z,1392.00
2022-10-19T08:53:00.674Z,1368.00
2022-10-19T08:54:00.624Z,1372.00
2022-10-19T08:55:00.567Z,1360.00
2022-10-19T08:56:03.752Z,1352.00
2022-10-19T08:57:00.463Z,1292.00
2022-10-19T08:58:00.407Z,1240.00
2022-10-19T08:59:00.359Z,1224.00
2022-10-19T09:00:00.300Z,1256.00
2022-10-19T09:01:00.263Z,1284.00
2022-10-19T09:02:00.199Z,1248.00
2022-10-19T09:03:00.159Z,1188.00
2022-10-19T09:04:00.107Z,1112.00
2022-10-19T09:05:00.054Z,1084.00
2022-10-19T09:06:00.002Z,1092.00
2022-10-19T09:06:59.928Z,1172.00
2022-10-19T09:07:59.879Z,1292.00
2022-10-19T09:08:59.947Z,1444.00
2022-10-19T09:09:59.771Z,1536.00
2022-10-19T09:10:59.715Z,1568.00
2022-10-19T09:11:59.665Z,1564.00
2022-10-19T09:12:59.609Z,1532.00
2022-10-19T09:14:05.094Z,1516.00
2022-10-19T09:14:59.507Z,1560.00
2022-10-19T09:15:59.453Z,1616.00
2022-10-19T09:16:59.399Z,1644.00
2022-10-19T09:17:59.347Z,1652.00
2022-10-19T09:18:59.310Z,1660.00
2022-10-19T09:19:59.253Z,1616.00
2022-10-19T09:20:59.186Z,1564.00
2022-10-19T09:21:59.262Z,1536.00
2022-10-19T09:22:59.081Z,1452.00
2022-10-19T09:23:59.025Z,1392.00
2022-10-19T09:24:58.987Z,1460.00
2022-10-19T09:25:58.920Z,1544.00
2022-10-19T09:26:58.897Z,1636.00
2022-10-19T09:27:58.867Z,1692.00
2022-10-19T09:28:58.783Z,1744.00
2022-10-19T09:29:58.709Z,1756.00
2022-10-19T09:30:58.654Z,1740.00
2022-10-19T09:32:58.566Z,1740.00
2022-10-19T09:33:58.499Z,1824.00
2022-10-19T09:34:58.462Z,1928.00
2022-10-19T09:35:58.391Z,1980.00
2022-10-19T09:36:58.397Z,2048.00
2022-10-19T09:37:58.302Z,2192.00
2022-10-19T09:38:58.239Z,2276.00
2022-10-19T09:39:58.181Z,2256.00
2022-10-19T09:40:58.124Z,2240.00
2022-10-19T09:41:58.071Z,2264.00
2022-10-19T09:42:58.049Z,2320.00
2022-10-19T09:43:57.968Z,2372.00
2022-10-19T09:44:57.913Z,2388.00
2022-10-19T09:45:57.860Z,2412.00
2022-10-19T09:46:57.805Z,2540.00
2022-10-19T09:48:04.548Z,2600.00
2022-10-19T09:48:57.703Z,2732.00
2022-10-19T09:49:57.648Z,2704.00
2022-10-19T09:50:57.608Z,2660.00
2022-10-19T09:51:57.544Z,2684.00
2022-10-19T09:52:57.507Z,2916.00
2022-10-19T09:53:57.436Z,2872.00
2022-10-19T09:54:57.383Z,2552.00
2022-10-19T09:55:57.330Z,2072.00
2022-10-19T09:56:57.289Z,2388.00
2022-10-19T09:57:57.240Z,2248.00
2022-10-19T09:58:57.192Z,2480.00
2022-10-19T09:59:57.133Z,2400.00
2022-10-19T10:00:57.084Z,2240.00
2022-10-19T10:01:57.206Z,2144.00
2022-10-19T10:02:56.963Z,2148.00
2022-10-19T10:03:56.927Z,2244.00
2022-10-19T10:04:56.871Z,2320.00
2022-10-19T10:05:56.805Z,2372.00
2022-10-19T10:06:56.753Z,2356.00
2022-10-19T10:07:56.698Z,2280.00
2022-10-19T10:08:56.724Z,2264.00
2022-10-19T10:09:56.596Z,2280.00
2022-10-19T10:10:56.593Z,2356.00
2022-10-19T10:11:56.494Z,2340.00
2022-10-19T10:12:56.437Z,2268.00
2022-10-19T10:13:56.404Z,2180.00
2022-10-19T10:14:56.346Z,1944.00
2022-10-19T10:15:56.279Z,1864.00
2022-10-19T10:16:56.227Z,1820.00
2022-10-19T10:17:56.178Z,1964.00
2022-10-19T10:18:56.137Z,2088.00
2022-10-19T10:19:56.071Z,2176.00
2022-10-19T10:21:55.986Z,2440.00
2022-10-19T10:22:55.913Z,2576.00
2022-10-19T10:23:56.856Z,2704.00
2022-10-19T10:24:55.810Z,2732.00
2022-10-19T10:25:55.770Z,2644.00
2022-10-19T10:26:55.739Z,2608.00
2022-10-19T10:27:55.663Z,2600.00
2022-10-19T10:28:57.912Z,2552.00
2022-10-19T10:30:55.496Z,2328.00
2022-10-19T10:31:55.443Z,2312.00
2022-10-19T10:32:55.428Z,2836.00
2022-10-19T10:33:55.342Z,2860.00
2022-10-19T10:34:58.347Z,3588.00
2022-10-19T10:35:55.234Z,4448.00
2022-10-19T10:36:55.195Z,5284.00
2022-10-19T10:37:55.129Z,6232.00
2022-10-19T10:38:55.102Z,6580.00
2022-10-19T10:39:56.737Z,7264.00
2022-10-19T10:40:54.985Z,8028.00
2022-10-19T10:41:54.923Z,9268.00
2022-10-19T10:42:54.898Z,9040.00
2022-10-19T10:43:55.423Z,8932.00
2022-10-19T10:44:54.769Z,8568.00
2022-10-19T10:45:54.718Z,8476.00
2022-10-19T10:46:54.676Z,9276.00
2022-10-19T10:47:54.638Z,9968.00
2022-10-19T10:48:54.563Z,9572.00
2022-10-19T10:49:54.510Z,10184.00
2022-10-19T10:50:54.501Z,9828.00
2022-10-19T10:51:54.411Z,9132.00
2022-10-19T10:52:54.367Z,8800.00
2022-10-19T10:53:54.323Z,8380.00
2022-10-19T10:54:54.259Z,8052.00
2022-10-19T10:55:54.221Z,7724.00
2022-10-19T10:56:54.176Z,7468.00
2022-10-19T10:57:54.137Z,7436.00
2022-10-19T10:58:54.065Z,7360.00
2022-10-19T10:59:54.021Z,7340.00
2022-10-19T11:00:53.959Z,7312.00
2022-10-19T11:01:53.990Z,7356.00
2022-10-19T11:02:53.859Z,7380.00
2022-10-19T11:03:53.809Z,7508.00
2022-10-19T11:05:03.307Z,7480.00
2022-10-19T11:05:53.740Z,7480.00
2022-10-19T11:06:53.733Z,7320.00
2022-10-19T11:07:53.639Z,7108.00
2022-10-19T11:08:53.658Z,6924.00
2022-10-19T11:09:53.527Z,6840.00
2022-10-19T11:10:53.496Z,6776.00
2022-10-19T11:11:53.459Z,6652.00
2022-10-19T11:12:53.396Z,6432.00
2022-10-19T11:13:53.374Z,6240.00
2022-10-19T11:14:53.298Z,6304.00
2022-10-19T11:15:53.250Z,6284.00
2022-10-19T11:16:53.229Z,6092.00
2022-10-19T11:17:53.182Z,6020.00
2022-10-19T11:18:53.088Z,6084.00
2022-10-19T11:19:53.058Z,6184.00
2022-10-19T11:20:53.037Z,6156.00
2022-10-19T11:21:52.969Z,6136.00
2022-10-19T11:22:52.939Z,6092.00
2022-10-19T11:23:52.872Z,6064.00
2022-10-19T11:24:52.810Z,5988.00
2022-10-19T11:25:52.760Z,5940.00
2022-10-19T11:26:52.744Z,5968.00
2022-10-19T11:27:52.706Z,6008.00
2022-10-19T11:28:52.611Z,5976.00
2022-10-19T11:29:52.574Z,5944.00
2022-10-19T11:30:52.535Z,5784.00
2022-10-19T11:31:52.518Z,5884.00
2022-10-19T11:32:52.445Z,5852.00
2022-10-19T11:33:52.387Z,5784.00
2022-10-19T11:34:52.352Z,5688.00
2022-10-19T11:35:52.308Z,5584.00
2022-10-19T11:36:52.281Z,5424.00
2022-10-19T11:38:17.321Z,5352.00
2022-10-19T11:38:52.167Z,5412.00
2022-10-19T11:39:52.109Z,5340.00
2022-10-19T11:41:13.161Z,5348.00
2022-10-19T11:41:52.022Z,5288.00
2022-10-19T11:42:51.967Z,5320.00
2022-10-19T11:43:51.989Z,5220.00
2022-10-19T11:44:51.874Z,5080.00
2022-10-19T11:45:51.858Z,5172.00
2022-10-19T11:46:51.787Z,5112.00
2022-10-19T11:47:51.732Z,5092.00
2022-10-19T11:48:54.763Z,5156.00
2022-10-19T11:49:51.682Z,5092.00
2022-10-19T11:50:54.162Z,5072.00
2022-10-19T11:51:51.606Z,5056.00
2022-10-19T11:52:51.532Z,5008.00
2022-10-19T11:53:51.462Z,5036.00
2022-10-19T11:54:51.393Z,5016.00
2022-10-19T11:55:51.366Z,4952.00
2022-10-19T11:57:03.340Z,4912.00
2022-10-19T11:57:51.257Z,4924.00
2022-10-19T11:58:51.225Z,4916.00
2022-10-19T11:59:51.228Z,4804.00
2022-10-19T12:00:51.117Z,4920.00
2022-10-19T12:01:51.131Z,4968.00
2022-10-19T12:02:51.072Z,4968.00
2022-10-19T12:03:51.038Z,4968.00
2022-10-19T12:04:50.943Z,4988.00
2022-10-19T12:05:50.897Z,5000.00
2022-10-19T12:06:50.852Z,4976.00
2022-10-19T12:07:50.805Z,4884.00
2022-10-19T12:08:53.788Z,4672.00
2022-10-19T12:09:50.722Z,4624.00
2022-10-19T12:10:50.662Z,4620.00
2022-10-19T12:11:50.632Z,4640.00
2022-10-19T12:12:50.576Z,4676.00
2022-10-19T12:13:50.543Z,4600.00
2022-10-19T12:14:50.512Z,4628.00
2022-10-19T12:15:50.437Z,4616.00
2022-10-19T12:16:50.415Z,4664.00
2022-10-19T12:17:50.355Z,4604.00
2022-10-19T12:18:50.322Z,4596.00
2022-10-19T12:19:50.268Z,4636.00
2022-10-19T12:20:50.210Z,4624.00
2022-10-19T12:21:50.162Z,4484.00
2022-10-19T12:22:50.152Z,4412.00
2022-10-19T12:23:50.064Z,4432.00
2022-10-19T12:24:50.042Z,4400.00
2022-10-19T12:25:49.972Z,4452.00
2022-10-19T12:26:49.939Z,4364.00
2022-10-19T12:27:49.886Z,4076.00
2022-10-19T12:28:49.831Z,2664.00
2022-10-19T12:29:49.823Z,3408.00
2022-10-19T12:30:49.789Z,4284.00
2022-10-19T12:31:49.727Z,4248.00
2022-10-19T12:32:53.503Z,4256.00
2022-10-19T12:33:49.632Z,4336.00
2022-10-19T12:34:49.581Z,4348.00
2022-10-19T12:35:49.513Z,4300.00
2022-10-19T12:36:49.503Z,4152.00
2022-10-19T12:37:49.451Z,4096.00
2022-10-19T12:38:50.826Z,4036.00
2022-10-19T12:39:49.337Z,4008.00
2022-10-19T12:40:49.322Z,4108.00
2022-10-19T12:41:49.294Z,4196.00
2022-10-19T12:42:49.205Z,4240.00
2022-10-19T12:43:49.174Z,4232.00
2022-10-19T12:44:52.686Z,4164.00
2022-10-19T12:45:49.085Z,4072.00
2022-10-19T12:46:51.666Z,4120.00
2022-10-19T12:47:48.988Z,4208.00